createdAt,value
2023-07-02T00:03:41.080Z,3.88
2023-07-02T00:08:42.701Z,3.83
2023-07-02T00:13:44.233Z,4.30
2023-07-02T00:18:45.724Z,3.88
2023-07-02T00:23:48.453Z,5.10
2023-07-02T00:28:49.980Z,3.67
2023-07-02T00:33:51.800Z,4.18
2023-07-02T00:38:53.889Z,3.95
2023-07-02T00:43:55.838Z,4.30
2023-07-02T00:48:58.161Z,3.05
2023-07-02T00:54:00.096Z,4.70
2023-07-02T00:59:01.916Z,5.35
2023-07-02T01:04:06.449Z,7.65
2023-07-02T01:09:08.554Z,4.05
2023-07-02T01:14:13.979Z,4.57
2023-07-02T01:19:52.716Z,7.78
2023-07-02T01:24:55.991Z,4.53
2023-07-02T01:29:58.377Z,3.42
2023-07-02T01:35:00.052Z,4.65
2023-07-02T01:40:01.734Z,5.43
2023-07-02T01:45:03.853Z,3.40
2023-07-02T01:50:06.507Z,5.60
2023-07-02T01:55:08.523Z,4.93
2023-07-02T02:00:10.631Z,3.17
2023-07-02T02:05:12.206Z,7.10
2023-07-02T02:10:15.777Z,5.38
2023-07-02T02:15:17.635Z,6.53
2023-07-02T02:20:19.919Z,7.13
2023-07-02T02:25:21.627Z,2.85
2023-07-02T02:30:23.144Z,6.30
2023-07-02T02:35:24.745Z,12.15
2023-07-02T02:40:26.246Z,11.07
2023-07-02T02:45:27.718Z,8.90
2023-07-02T02:50:29.197Z,5.10
2023-07-02T02:55:30.723Z,6.68
2023-07-02T03:00:32.335Z,7.57
2023-07-02T03:05:34.042Z,4.80
2023-07-02T03:10:35.650Z,11.43
2023-07-02T03:15:37.197Z,6.32
2023-07-02T03:20:38.767Z,5.05
2023-07-02T03:25:40.490Z,3.97
2023-07-02T03:30:42.390Z,5.55
2023-07-02T03:35:44.056Z,8.88
2023-07-02T03:40:46.139Z,7.15
2023-07-02T03:45:48.152Z,5.90
2023-07-02T03:50:49.741Z,6.40
2023-07-02T03:55:51.913Z,8.07
2023-07-02T04:00:53.469Z,4.78
2023-07-02T04:05:55.118Z,5.18
2023-07-02T04:10:56.659Z,6.50
2023-07-02T04:15:58.513Z,6.85
2023-07-02T04:21:02.643Z,6.93
2023-07-02T04:26:17.719Z,7.78
2023-07-02T04:31:26.244Z,9.05
2023-07-02T04:36:29.729Z,7.65
2023-07-02T04:41:31.668Z,7.80
2023-07-02T04:46:35.639Z,4.93
2023-07-02T04:51:37.602Z,11.23
2023-07-02T04:56:41.514Z,7.07
2023-07-02T05:01:43.913Z,7.50
2023-07-02T05:06:45.634Z,6.68
2023-07-02T05:11:47.439Z,5.75
2023-07-02T05:16:49.430Z,9.15
2023-07-02T05:21:51.143Z,12.23
2023-07-02T05:26:53.079Z,11.13
2023-07-02T05:31:54.923Z,6.20
2023-07-02T05:36:56.654Z,6.70
2023-07-02T05:42:01.008Z,6.82
2023-07-02T05:47:02.653Z,5.70
2023-07-02T05:52:04.749Z,8.52
2023-07-02T05:57:09.283Z,10.05
2023-07-02T06:02:10.779Z,5.32
2023-07-02T06:07:12.402Z,4.95
2023-07-02T06:12:17.338Z,6.95
2023-07-02T06:17:18.959Z,7.95
2023-07-02T06:22:20.638Z,7.85
2023-07-02T06:27:22.278Z,10.30
2023-07-02T06:32:23.880Z,17.40
2023-07-02T06:37:25.464Z,12.10
2023-07-02T06:42:30.381Z,9.30
2023-07-02T06:47:32.415Z,14.10
2023-07-02T06:52:34.129Z,11.85
2023-07-02T06:57:35.901Z,14.10
2023-07-02T07:02:37.467Z,13.45
2023-07-02T07:07:39.190Z,13.63
2023-07-02T07:12:41.155Z,14.23
2023-07-02T07:17:42.716Z,14.13
2023-07-02T07:22:44.461Z,14.35
2023-07-02T07:27:46.224Z,14.10
2023-07-02T07:32:54.800Z,14.60
2023-07-02T07:37:56.664Z,13.73
2023-07-02T07:42:58.385Z,11.15
2023-07-02T07:48:00.155Z,18.60
2023-07-02T07:53:02.139Z,15.98
2023-07-02T07:58:03.889Z,14.88
2023-07-02T08:03:05.560Z,19.58
2023-07-02T08:08:07.345Z,20.58
2023-07-02T08:13:11.923Z,23.10
2023-07-02T08:18:14.480Z,18.88
2023-07-02T08:23:15.998Z,21.60
2023-07-02T08:28:17.588Z,21.48
2023-07-02T08:33:19.171Z,21.73
2023-07-02T08:38:20.714Z,21.20
2023-07-02T08:43:24.440Z,18.63
2023-07-02T08:48:27.623Z,20.73
2023-07-02T08:53:34.598Z,19.20
2023-07-02T08:58:36.163Z,23.95
2023-07-02T09:03:38.649Z,21.00
2023-07-02T09:08:40.388Z,16.15
2023-07-02T09:13:54.170Z,16.38
2023-07-02T09:19:09.439Z,18.58
2023-07-02T09:24:22.592Z,21.63
2023-07-02T09:29:25.300Z,20.60
2023-07-02T09:34:34.465Z,24.25
2023-07-02T09:39:37.308Z,24.50
2023-07-02T09:44:39.496Z,23.10
2023-07-02T09:49:50.040Z,20.27
2023-07-02T09:54:51.635Z,20.30
2023-07-02T09:59:53.372Z,20.75
2023-07-02T10:04:56.511Z,22.70
2023-07-02T10:09:58.546Z,20.35
2023-07-02T10:15:00.437Z,22.77
2023-07-02T10:20:08.136Z,25.63
2023-07-02T10:25:09.735Z,23.40
2023-07-02T10:30:11.817Z,22.35
2023-07-02T10:35:17.813Z,22.40
2023-07-02T10:40:19.295Z,22.13
2023-07-02T10:45:22.070Z,20.10
2023-07-02T10:50:24.389Z,27.90
2023-07-02T10:55:27.314Z,26.90
2023-07-02T11:00:28.826Z,22.42
2023-07-02T11:05:30.521Z,22.67
2023-07-02T11:10:34.512Z,27.38
2023-07-02T11:15:38.269Z,23.92
2023-07-02T11:20:41.984Z,25.17
2023-07-02T11:25:43.513Z,24.17
2023-07-02T11:30:48.012Z,24.23
2023-07-02T11:35:49.824Z,21.38
2023-07-02T11:40:51.684Z,19.55
2023-07-02T11:45:53.346Z,18.42
2023-07-02T11:50:54.832Z,18.58
2023-07-02T11:55:56.315Z,19.48
2023-07-02T12:00:57.813Z,23.17
2023-07-02T12:05:59.333Z,21.63
2023-07-02T12:11:00.815Z,19.08
2023-07-02T12:16:02.398Z,17.95
2023-07-02T12:21:04.263Z,18.98
2023-07-02T12:26:05.932Z,22.90
2023-07-02T12:31:07.596Z,22.17
2023-07-02T12:36:09.186Z,20.40
2023-07-02T12:41:10.686Z,20.95
2023-07-02T12:46:12.217Z,19.60
2023-07-02T12:51:13.693Z,19.17
2023-07-02T12:56:15.313Z,18.83
2023-07-02T13:01:16.778Z,22.38
2023-07-02T13:06:18.420Z,15.45
2023-07-02T13:11:19.941Z,21.63
2023-07-02T13:16:21.617Z,18.00
2023-07-02T13:21:23.409Z,19.67
2023-07-02T13:26:24.919Z,17.58
2023-07-02T13:31:26.697Z,16.75
2023-07-02T13:36:31.182Z,16.77
2023-07-02T13:41:32.782Z,15.32
2023-07-02T13:46:34.603Z,17.15
2023-07-02T13:51:36.968Z,18.75
2023-07-02T13:56:38.434Z,19.50
2023-07-02T14:01:39.919Z,15.52
2023-07-02T14:06:41.916Z,16.13
2023-07-02T14:11:44.830Z,16.95
2023-07-02T14:16:47.132Z,18.75
2023-07-02T14:21:48.719Z,19.13
2023-07-02T14:26:50.289Z,20.00
2023-07-02T14:31:51.936Z,18.40
2023-07-02T14:36:53.730Z,17.77
2023-07-02T14:41:55.328Z,22.15
2023-07-02T14:46:56.887Z,15.85
2023-07-02T14:51:58.439Z,19.50
2023-07-02T14:56:59.927Z,17.55
2023-07-02T15:02:01.405Z,20.20
2023-07-02T15:07:03.041Z,20.80
2023-07-02T15:12:04.593Z,17.92
2023-07-02T15:17:06.386Z,19.05
2023-07-02T15:22:07.963Z,23.13
2023-07-02T15:27:09.656Z,17.88
2023-07-02T15:32:11.261Z,21.05
2023-07-02T15:37:13.869Z,28.13
2023-07-02T15:42:15.544Z,22.55
2023-07-02T15:47:17.028Z,26.20
2023-07-02T15:52:19.633Z,22.60
2023-07-02T15:57:21.111Z,19.20
2023-07-02T16:02:24.535Z,21.05
2023-07-02T16:07:26.302Z,22.02
2023-07-02T16:12:27.754Z,19.85
2023-07-02T16:17:29.284Z,19.10
2023-07-02T16:22:30.912Z,22.60
2023-07-02T16:27:34.972Z,23.58
2023-07-02T16:32:36.551Z,24.27
2023-07-02T16:37:38.178Z,20.45
2023-07-02T16:42:39.762Z,19.35
2023-07-02T16:47:41.308Z,20.08
2023-07-02T16:52:42.922Z,22.77
2023-07-02T16:57:44.463Z,21.77
2023-07-02T17:02:46.004Z,20.42
2023-07-02T17:07:47.801Z,21.67
2023-07-02T17:12:49.302Z,17.90
2023-07-02T17:17:52.741Z,19.02
2023-07-02T17:22:54.447Z,21.33
2023-07-02T17:27:55.909Z,18.98
2023-07-02T17:32:57.504Z,22.90
2023-07-02T17:37:59.125Z,19.10
2023-07-02T17:43:00.686Z,17.77
2023-07-02T17:48:02.423Z,21.05
2023-07-02T17:53:03.941Z,24.70
2023-07-02T17:58:05.492Z,21.58
2023-07-02T18:03:07.020Z,22.83
2023-07-02T18:08:08.643Z,23.20
2023-07-02T18:13:10.250Z,21.80
2023-07-02T18:18:11.814Z,20.65
2023-07-02T18:23:13.509Z,20.40
2023-07-02T18:28:15.492Z,20.58
2023-07-02T18:33:17.566Z,17.70
2023-07-02T18:38:19.472Z,21.30
2023-07-02T18:43:20.960Z,17.83
2023-07-02T18:48:22.657Z,20.98
2023-07-02T18:53:25.463Z,19.45
2023-07-02T18:58:28.525Z,20.63
2023-07-02T19:03:30.119Z,25.08
2023-07-02T19:08:31.740Z,19.67
2023-07-02T19:13:34.624Z,20.40
2023-07-02T19:18:36.289Z,14.90
2023-07-02T19:23:37.796Z,18.05
2023-07-02T19:28:39.330Z,18.05
2023-07-02T19:33:40.920Z,20.25
2023-07-02T19:38:42.440Z,22.73
2023-07-02T19:43:43.972Z,20.80
2023-07-02T19:48:45.897Z,19.67
2023-07-02T19:53:47.415Z,19.00
2023-07-02T19:58:50.274Z,21.35
2023-07-02T20:03:52.724Z,17.83
2023-07-02T20:08:54.431Z,20.85
2023-07-02T20:13:55.920Z,18.40
2023-07-02T20:18:57.399Z,19.73
2023-07-02T20:24:00.412Z,21.98
2023-07-02T20:29:04.020Z,18.33
2023-07-02T20:34:06.093Z,24.70
2023-07-02T20:39:08.028Z,20.98
2023-07-02T20:44:09.536Z,20.75
2023-07-02T20:49:14.021Z,20.02
2023-07-02T20:54:17.714Z,23.48
2023-07-02T20:59:21.451Z,23.17
2023-07-02T21:04:22.947Z,20.95
2023-07-02T21:09:25.395Z,24.33
2023-07-02T21:14:26.855Z,16.67
2023-07-02T21:19:29.025Z,18.42
2023-07-02T21:24:30.578Z,21.77
2023-07-02T21:29:32.281Z,19.42
2023-07-02T21:34:36.628Z,19.20
2023-07-02T21:39:38.470Z,18.27
2023-07-02T21:44:39.968Z,23.13
2023-07-02T21:49:41.415Z,22.25
2023-07-02T21:54:42.875Z,16.67
2023-07-02T21:59:44.917Z,18.77
2023-07-02T22:04:47.100Z,18.83
2023-07-02T22:09:49.025Z,20.75
2023-07-02T22:14:57.319Z,19.08
2023-07-02T22:20:01.791Z,17.77
2023-07-02T22:25:04.714Z,21.40
2023-07-02T22:30:10.170Z,15.10
2023-07-02T22:35:11.806Z,24.92
2023-07-02T22:40:16.765Z,17.52
2023-07-02T22:45:18.593Z,22.15
2023-07-02T22:50:20.156Z,21.02
2023-07-02T22:55:21.698Z,21.45
2023-07-02T23:00:23.344Z,21.52
2023-07-02T23:05:25.027Z,15.88
2023-07-02T23:10:26.608Z,21.10
2023-07-02T23:15:28.048Z,18.30
2023-07-02T23:20:29.488Z,25.33
2023-07-02T23:25:31.374Z,21.33
2023-07-02T23:30:38.930Z,14.07
2023-07-02T23:35:40.621Z,21.98
2023-07-02T23:40:42.117Z,22.13
2023-07-02T23:45:43.597Z,17.50
2023-07-02T23:50:46.857Z,17.17
2023-07-02T23:55:50.244Z,18.77
